RYR66 EGCC-EGPH
Flight info
| Callsign | RYR66 |
|---|---|
| Flight time | 0h 35m |
| Altitude | 24000 |
| Route | POL N601 INPIP |
| Aircraft | B738/M-SDE2E3FGHIRWXY/LB1 |
Departure
| Time | 2026-05-07 10:45 |
|---|---|
| Airport | Manchester Airport (EGCC) |
Arrival
| Time | 2026-05-07 11:20 |
|---|---|
| Airport | Edinburgh Airport (EGPH) |
| Time | Latitude | Longitude | Altitude | Speed | Heading |
|---|---|---|---|---|---|
| 2026-05-07 10:29 | 53.36062 | -2.26837 | 232 ft | 0 kts | 314° |
| 2026-05-07 10:39 | 53.36052 | -2.26817 | 234 ft | 2 kts | 308° |
| 2026-05-07 10:39 | 53.36042 | -2.26795 | 236 ft | 2 kts | 298° |
| 2026-05-07 10:40 | 53.36036 | -2.26769 | 234 ft | 2 kts | 281° |
| 2026-05-07 10:40 | 53.36036 | -2.26742 | 235 ft | 2 kts | 253° |
| 2026-05-07 10:40 | 53.36043 | -2.26717 | 237 ft | 2 kts | 235° |
| 2026-05-07 10:40 | 53.36047 | -2.26706 | 236 ft | 0 kts | 233° |
| 2026-05-07 10:41 | 53.36044 | -2.26715 | 237 ft | 3 kts | 232° |
| 2026-05-07 10:42 | 53.36010 | -2.26757 | 234 ft | 8 kts | 192° |
| 2026-05-07 10:42 | 53.35962 | -2.26723 | 234 ft | 8 kts | 158° |
| 2026-05-07 10:42 | 53.35946 | -2.26717 | 233 ft | 0 kts | 168° |
| 2026-05-07 10:42 | 53.35944 | -2.26716 | 233 ft | 3 kts | 168° |
| 2026-05-07 10:43 | 53.35859 | -2.26690 | 238 ft | 20 kts | 171° |
| 2026-05-07 10:43 | 53.35721 | -2.26651 | 241 ft | 22 kts | 171° |
| 2026-05-07 10:43 | 53.35560 | -2.26654 | 233 ft | 24 kts | 217° |
| 2026-05-07 10:43 | 53.35457 | -2.26862 | 233 ft | 23 kts | 233° |
| 2026-05-07 10:44 | 53.35357 | -2.27063 | 232 ft | 22 kts | 230° |
| 2026-05-07 10:44 | 53.35250 | -2.27217 | 232 ft | 20 kts | 193° |
| 2026-05-07 10:44 | 53.35115 | -2.27262 | 232 ft | 19 kts | 192° |
| 2026-05-07 10:44 | 53.34996 | -2.27345 | 232 ft | 19 kts | 231° |
| 2026-05-07 10:45 | 53.34787 | -2.27778 | 229 ft | 88 kts | 231° |
| 2026-05-07 10:45 | 53.34248 | -2.28900 | 233 ft | 157 kts | 231° |
| 2026-05-07 10:45 | 53.33455 | -2.30563 | 431 ft | 203 kts | 232° |
| 2026-05-07 10:45 | 53.32574 | -2.32502 | 1060 ft | 216 kts | 234° |
| 2026-05-07 10:46 | 53.31653 | -2.34532 | 1827 ft | 218 kts | 234° |
| 2026-05-07 10:46 | 53.31165 | -2.36800 | 2822 ft | 207 kts | 272° |
| 2026-05-07 10:46 | 53.31610 | -2.39104 | 3399 ft | 221 kts | 305° |
| 2026-05-07 10:46 | 53.32390 | -2.40276 | 3530 ft | 239 kts | 332° |
| 2026-05-07 10:47 | 53.34643 | -2.41208 | 4135 ft | 257 kts | 348° |
| 2026-05-07 10:47 | 53.36404 | -2.41916 | 4751 ft | 262 kts | 344° |
| 2026-05-07 10:47 | 53.38159 | -2.42779 | 5512 ft | 264 kts | 342° |
| 2026-05-07 10:47 | 53.39921 | -2.43722 | 6265 ft | 268 kts | 341° |
| 2026-05-07 10:48 | 53.41685 | -2.44674 | 7200 ft | 269 kts | 342° |
| 2026-05-07 10:48 | 53.42287 | -2.44997 | 7544 ft | 270 kts | 342° |
| 2026-05-07 10:48 | 53.44700 | -2.46278 | 8606 ft | 275 kts | 345° |
| 2026-05-07 10:48 | 53.47093 | -2.46175 | 9013 ft | 279 kts | 19° |
| 2026-05-07 10:49 | 53.48773 | -2.44522 | 9020 ft | 281 kts | 38° |
| 2026-05-07 10:49 | 53.50310 | -2.42461 | 9037 ft | 287 kts | 38° |
| 2026-05-07 10:49 | 53.51931 | -2.40282 | 9226 ft | 312 kts | 38° |
| 2026-05-07 10:49 | 53.53701 | -2.37917 | 9571 ft | 334 kts | 38° |
| 2026-05-07 10:50 | 53.55524 | -2.35485 | 10303 ft | 342 kts | 38° |
| 2026-05-07 10:50 | 53.57401 | -2.32992 | 11167 ft | 345 kts | 38° |
| 2026-05-07 10:50 | 53.59294 | -2.30477 | 11946 ft | 351 kts | 38° |
| 2026-05-07 10:50 | 53.61238 | -2.27893 | 12582 ft | 360 kts | 38° |
| 2026-05-07 10:51 | 53.63217 | -2.25257 | 13326 ft | 365 kts | 38° |
| 2026-05-07 10:51 | 53.65215 | -2.22593 | 14099 ft | 368 kts | 38° |
| 2026-05-07 10:51 | 53.67233 | -2.19900 | 14839 ft | 372 kts | 38° |
| 2026-05-07 10:51 | 53.69275 | -2.17170 | 15551 ft | 376 kts | 38° |
| 2026-05-07 10:52 | 53.71340 | -2.14437 | 16254 ft | 380 kts | 35° |
| 2026-05-07 10:52 | 53.73702 | -2.12513 | 16902 ft | 384 kts | 14° |
| 2026-05-07 10:52 | 53.76392 | -2.12129 | 17588 ft | 386 kts | 354° |
| 2026-05-07 10:52 | 53.78967 | -2.13224 | 18228 ft | 389 kts | 338° |
| 2026-05-07 10:53 | 53.81473 | -2.15016 | 18865 ft | 393 kts | 336° |
| 2026-05-07 10:53 | 53.83997 | -2.16854 | 19470 ft | 397 kts | 336° |
| 2026-05-07 10:53 | 53.86552 | -2.18671 | 19970 ft | 401 kts | 337° |
| 2026-05-07 10:53 | 53.89142 | -2.20467 | 19980 ft | 402 kts | 338° |
| 2026-05-07 10:54 | 53.91731 | -2.22235 | 19997 ft | 401 kts | 338° |
| 2026-05-07 10:54 | 53.94323 | -2.24002 | 20003 ft | 400 kts | 338° |
| 2026-05-07 10:54 | 53.96907 | -2.25769 | 20004 ft | 400 kts | 338° |
| 2026-05-07 10:54 | 53.99486 | -2.27540 | 20006 ft | 400 kts | 338° |
| 2026-05-07 10:55 | 54.02068 | -2.29319 | 20003 ft | 400 kts | 338° |
| 2026-05-07 10:55 | 54.04637 | -2.31094 | 20002 ft | 400 kts | 338° |
| 2026-05-07 10:55 | 54.07218 | -2.32880 | 20002 ft | 400 kts | 338° |
| 2026-05-07 10:55 | 54.09801 | -2.34671 | 20003 ft | 401 kts | 338° |
| 2026-05-07 10:56 | 54.12377 | -2.36458 | 20002 ft | 401 kts | 338° |
| 2026-05-07 10:56 | 54.14961 | -2.38253 | 20001 ft | 401 kts | 338° |
| 2026-05-07 10:56 | 54.17548 | -2.40049 | 20001 ft | 402 kts | 338° |
| 2026-05-07 10:56 | 54.20139 | -2.41844 | 20005 ft | 402 kts | 338° |
| 2026-05-07 10:57 | 54.22726 | -2.43637 | 20003 ft | 402 kts | 338° |
| 2026-05-07 10:57 | 54.25321 | -2.45436 | 20001 ft | 402 kts | 338° |
| 2026-05-07 10:57 | 54.27916 | -2.47240 | 20001 ft | 402 kts | 338° |
| 2026-05-07 10:57 | 54.29629 | -2.48432 | 20004 ft | 402 kts | 338° |
| 2026-05-07 10:58 | 54.33093 | -2.50847 | 20000 ft | 402 kts | 338° |
| 2026-05-07 10:58 | 54.35682 | -2.52655 | 19996 ft | 401 kts | 338° |
| 2026-05-07 10:58 | 54.38269 | -2.54464 | 20003 ft | 401 kts | 338° |
| 2026-05-07 10:58 | 54.40850 | -2.56271 | 20001 ft | 401 kts | 338° |
| 2026-05-07 10:59 | 54.43439 | -2.58086 | 20002 ft | 401 kts | 338° |
| 2026-05-07 10:59 | 54.46002 | -2.59885 | 20004 ft | 401 kts | 337° |
| 2026-05-07 10:59 | 54.47735 | -2.61103 | 20002 ft | 401 kts | 337° |
| 2026-05-07 10:59 | 54.50318 | -2.62921 | 19997 ft | 401 kts | 337° |
| 2026-05-07 11:00 | 54.52896 | -2.64744 | 20000 ft | 401 kts | 337° |
| 2026-05-07 11:00 | 54.55473 | -2.66572 | 20001 ft | 401 kts | 337° |
| 2026-05-07 11:00 | 54.58056 | -2.68408 | 20002 ft | 401 kts | 337° |
| 2026-05-07 11:00 | 54.60635 | -2.70243 | 20001 ft | 401 kts | 337° |
| 2026-05-07 11:01 | 54.64049 | -2.72676 | 20000 ft | 401 kts | 337° |
| 2026-05-07 11:01 | 54.65792 | -2.73919 | 20001 ft | 400 kts | 337° |
| 2026-05-07 11:01 | 54.68364 | -2.75755 | 20002 ft | 400 kts | 337° |
| 2026-05-07 11:01 | 54.70938 | -2.77596 | 20000 ft | 400 kts | 337° |
| 2026-05-07 11:02 | 54.73513 | -2.79435 | 20000 ft | 400 kts | 337° |
| 2026-05-07 11:02 | 54.76083 | -2.81271 | 20002 ft | 400 kts | 337° |
| 2026-05-07 11:02 | 54.78657 | -2.83110 | 20000 ft | 400 kts | 337° |
| 2026-05-07 11:02 | 54.81235 | -2.84956 | 20000 ft | 400 kts | 337° |
| 2026-05-07 11:03 | 54.83769 | -2.86773 | 20002 ft | 400 kts | 337° |
| 2026-05-07 11:03 | 54.86343 | -2.88621 | 20000 ft | 400 kts | 337° |
| 2026-05-07 11:03 | 54.88915 | -2.90472 | 20001 ft | 400 kts | 337° |
| 2026-05-07 11:03 | 54.91494 | -2.92338 | 20001 ft | 400 kts | 337° |
| 2026-05-07 11:04 | 54.94058 | -2.94197 | 19999 ft | 400 kts | 337° |
| 2026-05-07 11:04 | 54.96621 | -2.96059 | 20002 ft | 399 kts | 337° |
| 2026-05-07 11:04 | 54.99182 | -2.97922 | 20002 ft | 399 kts | 337° |
| 2026-05-07 11:04 | 55.01719 | -2.99769 | 19794 ft | 391 kts | 337° |
| 2026-05-07 11:05 | 55.04220 | -3.01593 | 19261 ft | 389 kts | 337° |
| 2026-05-07 11:05 | 55.06693 | -3.03398 | 18610 ft | 390 kts | 337° |
| 2026-05-07 11:05 | 55.09230 | -3.05029 | 18234 ft | 390 kts | 345° |
| 2026-05-07 11:05 | 55.11924 | -3.05797 | 18121 ft | 391 kts | 354° |
| 2026-05-07 11:06 | 55.14632 | -3.06165 | 18031 ft | 390 kts | 355° |
| 2026-05-07 11:06 | 55.17339 | -3.06481 | 18008 ft | 390 kts | 356° |
| 2026-05-07 11:06 | 55.20045 | -3.06796 | 18003 ft | 389 kts | 356° |
| 2026-05-07 11:06 | 55.22746 | -3.07124 | 17996 ft | 390 kts | 355° |
| 2026-05-07 11:07 | 55.25456 | -3.07469 | 18002 ft | 390 kts | 355° |
| 2026-05-07 11:07 | 55.28162 | -3.07827 | 17999 ft | 390 kts | 355° |
| 2026-05-07 11:07 | 55.30871 | -3.08192 | 18000 ft | 389 kts | 355° |
| 2026-05-07 11:07 | 55.33540 | -3.08556 | 17726 ft | 382 kts | 355° |
| 2026-05-07 11:08 | 55.36184 | -3.08919 | 17208 ft | 380 kts | 355° |
| 2026-05-07 11:08 | 55.38823 | -3.09283 | 16569 ft | 381 kts | 355° |
| 2026-05-07 11:08 | 55.41457 | -3.09647 | 15993 ft | 379 kts | 355° |
| 2026-05-07 11:08 | 55.44075 | -3.10008 | 15487 ft | 376 kts | 355° |
| 2026-05-07 11:09 | 55.46668 | -3.10367 | 15008 ft | 372 kts | 355° |
| 2026-05-07 11:09 | 55.49207 | -3.10718 | 14474 ft | 370 kts | 355° |
| 2026-05-07 11:09 | 55.51797 | -3.11077 | 13956 ft | 367 kts | 355° |
| 2026-05-07 11:09 | 55.54331 | -3.11428 | 13448 ft | 364 kts | 355° |
| 2026-05-07 11:10 | 55.56850 | -3.11778 | 12934 ft | 362 kts | 355° |
| 2026-05-07 11:10 | 55.59350 | -3.12126 | 12455 ft | 359 kts | 355° |
| 2026-05-07 11:10 | 55.61833 | -3.12465 | 11953 ft | 356 kts | 356° |
| 2026-05-07 11:10 | 55.64205 | -3.12255 | 11480 ft | 354 kts | 7° |
| 2026-05-07 11:11 | 55.65569 | -3.11912 | 11219 ft | 352 kts | 8° |
| 2026-05-07 11:11 | 55.67703 | -3.11309 | 10763 ft | 350 kts | 9° |
| 2026-05-07 11:11 | 55.70105 | -3.10601 | 10264 ft | 349 kts | 9° |
| 2026-05-07 11:11 | 55.72489 | -3.09888 | 9770 ft | 347 kts | 9° |
| 2026-05-07 11:12 | 55.74861 | -3.09173 | 9305 ft | 344 kts | 9° |
| 2026-05-07 11:12 | 55.77209 | -3.08461 | 8862 ft | 341 kts | 9° |
| 2026-05-07 11:12 | 55.79543 | -3.07752 | 8413 ft | 338 kts | 9° |
| 2026-05-07 11:12 | 55.81804 | -3.07063 | 8132 ft | 320 kts | 9° |
| 2026-05-07 11:13 | 55.83932 | -3.06414 | 7755 ft | 306 kts | 9° |
| 2026-05-07 11:13 | 55.86041 | -3.05769 | 6984 ft | 303 kts | 9° |
| 2026-05-07 11:13 | 55.88070 | -3.05146 | 6241 ft | 290 kts | 9° |
| 2026-05-07 11:13 | 55.90024 | -3.04545 | 5495 ft | 280 kts | 9° |
| 2026-05-07 11:14 | 55.91927 | -3.03963 | 4745 ft | 273 kts | 9° |
| 2026-05-07 11:14 | 55.93752 | -3.03399 | 4338 ft | 257 kts | 9° |
| 2026-05-07 11:14 | 55.95457 | -3.02870 | 4184 ft | 244 kts | 9° |
| 2026-05-07 11:14 | 55.97089 | -3.02394 | 4049 ft | 238 kts | 4° |
| 2026-05-07 11:15 | 55.98696 | -3.02717 | 3879 ft | 231 kts | 342° |
| 2026-05-07 11:15 | 56.00244 | -3.03645 | 3423 ft | 240 kts | 340° |
| 2026-05-07 11:15 | 56.01836 | -3.04671 | 3084 ft | 243 kts | 339° |
| 2026-05-07 11:15 | 56.03300 | -3.06010 | 3015 ft | 232 kts | 320° |
| 2026-05-07 11:16 | 56.04162 | -3.08280 | 3002 ft | 217 kts | 281° |
| 2026-05-07 11:16 | 56.03986 | -3.10803 | 3008 ft | 201 kts | 241° |
| 2026-05-07 11:16 | 56.03266 | -3.12849 | 2953 ft | 191 kts | 239° |
| 2026-05-07 11:16 | 56.02591 | -3.14867 | 2768 ft | 189 kts | 239° |
| 2026-05-07 11:17 | 56.01915 | -3.16869 | 2528 ft | 188 kts | 239° |
| 2026-05-07 11:17 | 56.01246 | -3.18836 | 2285 ft | 187 kts | 239° |
| 2026-05-07 11:17 | 56.00576 | -3.20803 | 2049 ft | 183 kts | 239° |
| 2026-05-07 11:17 | 55.99926 | -3.22715 | 1781 ft | 172 kts | 239° |
| 2026-05-07 11:18 | 55.99338 | -3.24448 | 1569 ft | 162 kts | 239° |
| 2026-05-07 11:18 | 55.98758 | -3.26155 | 1358 ft | 160 kts | 239° |
| 2026-05-07 11:18 | 55.98178 | -3.27864 | 1151 ft | 160 kts | 239° |
| 2026-05-07 11:18 | 55.97639 | -3.29485 | 929 ft | 145 kts | 241° |
| 2026-05-07 11:19 | 55.97119 | -3.30946 | 751 ft | 136 kts | 239° |
| 2026-05-07 11:19 | 55.96652 | -3.32385 | 579 ft | 133 kts | 239° |
| 2026-05-07 11:19 | 55.96163 | -3.33811 | 402 ft | 135 kts | 239° |
| 2026-05-07 11:19 | 55.95684 | -3.35253 | 207 ft | 136 kts | 238° |
| 2026-05-07 11:20 | 55.95213 | -3.36628 | 112 ft | 120 kts | 238° |
| 2026-05-07 11:20 | 55.94839 | -3.37726 | 113 ft | 87 kts | 239° |
| 2026-05-07 11:20 | 55.94586 | -3.38470 | 110 ft | 57 kts | 239° |
| 2026-05-07 11:20 | 55.94441 | -3.38897 | 112 ft | 27 kts | 239° |
| 2026-05-07 11:21 | 55.94350 | -3.38935 | 114 ft | 8 kts | 147° |
| 2026-05-07 11:21 | 55.94308 | -3.38888 | 115 ft | 7 kts | 149° |
| 2026-05-07 11:21 | 55.94284 | -3.38822 | 116 ft | 7 kts | 91° |
| 2026-05-07 11:21 | 55.94302 | -3.38740 | 115 ft | 7 kts | 60° |
| 2026-05-07 11:22 | 55.94327 | -3.38666 | 114 ft | 7 kts | 59° |
| 2026-05-07 11:22 | 55.94352 | -3.38588 | 114 ft | 8 kts | 62° |
| 2026-05-07 11:22 | 55.94388 | -3.38478 | 112 ft | 13 kts | 58° |
| 2026-05-07 11:22 | 55.94451 | -3.38302 | 112 ft | 19 kts | 58° |
| 2026-05-07 11:23 | 55.94521 | -3.38091 | 111 ft | 20 kts | 59° |
| 2026-05-07 11:23 | 55.94593 | -3.37884 | 111 ft | 19 kts | 58° |
| 2026-05-07 11:23 | 55.94661 | -3.37682 | 110 ft | 19 kts | 59° |
| 2026-05-07 11:23 | 55.94727 | -3.37486 | 111 ft | 18 kts | 59° |
| 2026-05-07 11:24 | 55.94792 | -3.37298 | 111 ft | 17 kts | 59° |
| 2026-05-07 11:24 | 55.94852 | -3.37115 | 111 ft | 17 kts | 60° |
| 2026-05-07 11:24 | 55.94912 | -3.36940 | 111 ft | 16 kts | 56° |
| 2026-05-07 11:24 | 55.94898 | -3.36762 | 111 ft | 14 kts | 88° |
| 2026-05-07 11:25 | 55.94924 | -3.36667 | 111 ft | 2 kts | 64° |
| 2026-05-07 11:25 | 55.94929 | -3.36646 | 111 ft | 2 kts | 59° |
| 2026-05-07 11:25 | 55.94955 | -3.36579 | 111 ft | 13 kts | 56° |
| 2026-05-07 11:25 | 55.94965 | -3.36484 | 111 ft | 8 kts | 131° |
| 2026-05-07 11:26 | 55.94928 | -3.36438 | 111 ft | 5 kts | 147° |
| 2026-05-07 11:26 | 55.94924 | -3.36434 | 111 ft | 0 kts | 147° |